sensor_id;sensor_type;location;lat;lon;timestamp;temperature;humidity
69464;DHT22;56665;41.106;16.688;2023-11-19T00:00:33;12.16;75.55
69464;DHT22;56665;41.106;16.688;2023-11-19T00:03:37;12.13;75.94
69464;DHT22;56665;41.106;16.688;2023-11-19T00:06:40;12.12;75.45
69464;DHT22;56665;41.106;16.688;2023-11-19T00:09:44;12.10;75.96
69464;DHT22;56665;41.106;16.688;2023-11-19T00:12:49;12.08;75.90
69464;DHT22;56665;41.106;16.688;2023-11-19T00:15:53;12.08;75.59
69464;DHT22;56665;41.106;16.688;2023-11-19T00:18:56;12.00;75.59
69464;DHT22;56665;41.106;16.688;2023-11-19T00:22:00;11.93;76.04
69464;DHT22;56665;41.106;16.688;2023-11-19T00:25:07;11.82;76.17
69464;DHT22;56665;41.106;16.688;2023-11-19T00:28:11;11.80;76.44
69464;DHT22;56665;41.106;16.688;2023-11-19T00:31:15;11.79;76.47
69464;DHT22;56665;41.106;16.688;2023-11-19T00:34:19;11.79;76.40
69464;DHT22;56665;41.106;16.688;2023-11-19T00:37:24;11.75;75.89
69464;DHT22;56665;41.106;16.688;2023-11-19T00:40:28;11.69;76.08
69464;DHT22;56665;41.106;16.688;2023-11-19T00:43:32;11.65;75.92
69464;DHT22;56665;41.106;16.688;2023-11-19T00:46:36;11.66;75.65
69464;DHT22;56665;41.106;16.688;2023-11-19T00:49:40;11.66;75.54
69464;DHT22;56665;41.106;16.688;2023-11-19T00:52:43;11.70;75.54
69464;DHT22;56665;41.106;16.688;2023-11-19T00:55:47;11.77;75.35
69464;DHT22;56665;41.106;16.688;2023-11-19T00:58:51;11.82;75.12
69464;DHT22;56665;41.106;16.688;2023-11-19T01:01:55;11.76;74.71
69464;DHT22;56665;41.106;16.688;2023-11-19T01:04:59;11.73;74.60
69464;DHT22;56665;41.106;16.688;2023-11-19T01:08:04;11.75;74.76
69464;DHT22;56665;41.106;16.688;2023-11-19T01:11:08;11.73;74.66
69464;DHT22;56665;41.106;16.688;2023-11-19T01:14:12;11.72;74.37
69464;DHT22;56665;41.106;16.688;2023-11-19T01:17:15;11.65;74.66
69464;DHT22;56665;41.106;16.688;2023-11-19T01:20:19;11.66;74.61
69464;DHT22;56665;41.106;16.688;2023-11-19T01:23:23;11.62;74.88
69464;DHT22;56665;41.106;16.688;2023-11-19T01:26:27;11.56;75.17
69464;DHT22;56665;41.106;16.688;2023-11-19T01:29:30;11.51;75.08
69464;DHT22;56665;41.106;16.688;2023-11-19T01:32:34;11.45;75.47
69464;DHT22;56665;41.106;16.688;2023-11-19T01:35:38;11.42;75.75
69464;DHT22;56665;41.106;16.688;2023-11-19T01:38:41;11.39;75.80
69464;DHT22;56665;41.106;16.688;2023-11-19T01:41:46;11.34;75.75
69464;DHT22;56665;41.106;16.688;2023-11-19T01:44:58;11.32;75.82
69464;DHT22;56665;41.106;16.688;2023-11-19T01:48:02;11.21;75.74
69464;DHT22;56665;41.106;16.688;2023-11-19T01:51:08;11.17;76.01
69464;DHT22;56665;41.106;16.688;2023-11-19T01:54:12;11.10;76.03
69464;DHT22;56665;41.106;16.688;2023-11-19T01:57:16;11.08;76.04
69464;DHT22;56665;41.106;16.688;2023-11-19T02:00:20;11.10;76.44
69464;DHT22;56665;41.106;16.688;2023-11-19T02:03:24;11.07;76.24
69464;DHT22;56665;41.106;16.688;2023-11-19T02:06:30;11.12;76.38
69464;DHT22;56665;41.106;16.688;2023-11-19T02:09:35;11.14;76.19
69464;DHT22;56665;41.106;16.688;2023-11-19T02:12:42;11.17;75.98
69464;DHT22;56665;41.106;16.688;2023-11-19T02:15:46;11.17;75.71
69464;DHT22;56665;41.106;16.688;2023-11-19T02:18:50;11.15;75.95
69464;DHT22;56665;41.106;16.688;2023-11-19T02:21:54;11.19;76.12
69464;DHT22;56665;41.106;16.688;2023-11-19T02:25:01;11.18;76.20
69464;DHT22;56665;41.106;16.688;2023-11-19T02:28:06;11.17;76.34
69464;DHT22;56665;41.106;16.688;2023-11-19T02:31:10;11.19;75.95
69464;DHT22;56665;41.106;16.688;2023-11-19T02:34:14;11.15;75.80
69464;DHT22;56665;41.106;16.688;2023-11-19T02:37:18;11.19;75.91
69464;DHT22;56665;41.106;16.688;2023-11-19T02:40:22;11.21;75.93
69464;DHT22;56665;41.106;16.688;2023-11-19T02:43:27;11.21;75.67
69464;DHT22;56665;41.106;16.688;2023-11-19T02:46:31;11.24;75.54
69464;DHT22;56665;41.106;16.688;2023-11-19T02:49:36;11.27;75.53
69464;DHT22;56665;41.106;16.688;2023-11-19T02:52:44;11.19;75.52
69464;DHT22;56665;41.106;16.688;2023-11-19T02:55:49;11.19;75.89
69464;DHT22;56665;41.106;16.688;2023-11-19T02:58:53;11.17;75.88
69464;DHT22;56665;41.106;16.688;2023-11-19T03:01:58;11.12;75.83
69464;DHT22;56665;41.106;16.688;2023-11-19T03:05:02;11.10;75.85
69464;DHT22;56665;41.106;16.688;2023-11-19T03:08:07;11.10;75.88
69464;DHT22;56665;41.106;16.688;2023-11-19T03:11:11;11.06;75.87
69464;DHT22;56665;41.106;16.688;2023-11-19T03:14:14;11.07;76.15
69464;DHT22;56665;41.106;16.688;2023-11-19T03:17:18;11.08;75.78
69464;DHT22;56665;41.106;16.688;2023-11-19T03:20:22;11.03;75.69
69464;DHT22;56665;41.106;16.688;2023-11-19T03:23:27;10.98;75.84
69464;DHT22;56665;41.106;16.688;2023-11-19T03:26:31;10.93;75.52
69464;DHT22;56665;41.106;16.688;2023-11-19T03:29:37;10.84;75.62
69464;DHT22;56665;41.106;16.688;2023-11-19T03:32:42;10.84;76.21
69464;DHT22;56665;41.106;16.688;2023-11-19T03:35:45;10.80;75.99
69464;DHT22;56665;41.106;16.688;2023-11-19T03:38:49;10.80;75.78
69464;DHT22;56665;41.106;16.688;2023-11-19T03:41:53;10.81;75.46
69464;DHT22;56665;41.106;16.688;2023-11-19T03:44:57;10.83;75.44
69464;DHT22;56665;41.106;16.688;2023-11-19T03:48:01;10.87;75.00
69464;DHT22;56665;41.106;16.688;2023-11-19T03:51:05;10.87;74.84
69464;DHT22;56665;41.106;16.688;2023-11-19T03:54:08;10.87;74.43
69464;DHT22;56665;41.106;16.688;2023-11-19T03:57:13;10.81;74.08
69464;DHT22;56665;41.106;16.688;2023-11-19T04:00:16;10.83;74.14
69464;DHT22;56665;41.106;16.688;2023-11-19T04:03:21;10.77;74.30
69464;DHT22;56665;41.106;16.688;2023-11-19T04:06:25;10.70;74.80
69464;DHT22;56665;41.106;16.688;2023-11-19T04:09:29;10.62;75.08
69464;DHT22;56665;41.106;16.688;2023-11-19T04:12:33;10.55;74.90
69464;DHT22;56665;41.106;16.688;2023-11-19T04:15:37;10.53;74.84
69464;DHT22;56665;41.106;16.688;2023-11-19T04:18:41;10.52;75.14
69464;DHT22;56665;41.106;16.688;2023-11-19T04:21:45;10.53;74.69
69464;DHT22;56665;41.106;16.688;2023-11-19T04:24:49;10.55;74.63
69464;DHT22;56665;41.106;16.688;2023-11-19T04:27:53;10.57;74.27
69464;DHT22;56665;41.106;16.688;2023-11-19T04:30:57;10.56;74.31
69464;DHT22;56665;41.106;16.688;2023-11-19T04:34:02;10.62;74.17
69464;DHT22;56665;41.106;16.688;2023-11-19T04:37:05;10.59;73.99
69464;DHT22;56665;41.106;16.688;2023-11-19T04:40:09;10.62;73.82
69464;DHT22;56665;41.106;16.688;2023-11-19T04:43:14;10.59;73.88
69464;DHT22;56665;41.106;16.688;2023-11-19T04:46:19;10.55;73.99
69464;DHT22;56665;41.106;16.688;2023-11-19T04:49:22;10.50;74.07
69464;DHT22;56665;41.106;16.688;2023-11-19T04:52:26;10.48;74.01
69464;DHT22;56665;41.106;16.688;2023-11-19T04:55:30;10.40;74.31
69464;DHT22;56665;41.106;16.688;2023-11-19T04:58:34;10.42;73.96
69464;DHT22;56665;41.106;16.688;2023-11-19T05:01:39;10.36;73.89
69464;DHT22;56665;41.106;16.688;2023-11-19T05:04:43;10.36;73.99
69464;DHT22;56665;41.106;16.688;2023-11-19T05:07:49;10.39;74.12
69464;DHT22;56665;41.106;16.688;2023-11-19T05:10:53;10.40;73.86
69464;DHT22;56665;41.106;16.688;2023-11-19T05:13:58;10.49;73.73
69464;DHT22;56665;41.106;16.688;2023-11-19T05:17:02;10.53;73.48
69464;DHT22;56665;41.106;16.688;2023-11-19T05:20:06;10.55;73.56
69464;DHT22;56665;41.106;16.688;2023-11-19T05:23:16;10.56;73.08
69464;DHT22;56665;41.106;16.688;2023-11-19T05:26:21;10.48;73.36
69464;DHT22;56665;41.106;16.688;2023-11-19T05:29:25;10.46;73.06
69464;DHT22;56665;41.106;16.688;2023-11-19T05:32:29;10.42;73.19
69464;DHT22;56665;41.106;16.688;2023-11-19T05:35:32;10.46;74.24
69464;DHT22;56665;41.106;16.688;2023-11-19T05:38:39;10.38;73.16
69464;DHT22;56665;41.106;16.688;2023-11-19T05:41:43;10.40;74.57
69464;DHT22;56665;41.106;16.688;2023-11-19T05:44:46;10.36;73.52
69464;DHT22;56665;41.106;16.688;2023-11-19T05:47:50;10.33;73.27
69464;DHT22;56665;41.106;16.688;2023-11-19T05:50:55;10.30;73.28
69464;DHT22;56665;41.106;16.688;2023-11-19T05:53:59;10.33;73.26
69464;DHT22;56665;41.106;16.688;2023-11-19T05:57:06;10.32;73.13
69464;DHT22;56665;41.106;16.688;2023-11-19T06:00:13;10.24;72.33
69464;DHT22;56665;41.106;16.688;2023-11-19T06:03:19;10.25;73.23
69464;DHT22;56665;41.106;16.688;2023-11-19T06:06:22;10.32;72.96
69464;DHT22;56665;41.106;16.688;2023-11-19T06:09:26;10.33;72.61
69464;DHT22;56665;41.106;16.688;2023-11-19T06:12:30;10.39;72.41
69464;DHT22;56665;41.106;16.688;2023-11-19T06:15:35;10.42;72.21
69464;DHT22;56665;41.106;16.688;2023-11-19T06:18:39;10.50;72.37
69464;DHT22;56665;41.106;16.688;2023-11-19T06:21:44;10.56;72.05
69464;DHT22;56665;41.106;16.688;2023-11-19T06:24:48;10.62;71.50
69464;DHT22;56665;41.106;16.688;2023-11-19T06:27:52;10.70;71.70
69464;DHT22;56665;41.106;16.688;2023-11-19T06:30:55;10.80;71.41
69464;DHT22;56665;41.106;16.688;2023-11-19T06:34:01;10.90;70.86
69464;DHT22;56665;41.106;16.688;2023-11-19T06:37:04;11.00;70.83
69464;DHT22;56665;41.106;16.688;2023-11-19T06:40:08;11.08;70.44
69464;DHT22;56665;41.106;16.688;2023-11-19T06:43:13;11.25;70.36
69464;DHT22;56665;41.106;16.688;2023-11-19T06:46:17;11.44;69.79
69464;DHT22;56665;41.106;16.688;2023-11-19T06:49:21;11.61;69.34
69464;DHT22;56665;41.106;16.688;2023-11-19T06:52:25;11.86;68.98
69464;DHT22;56665;41.106;16.688;2023-11-19T06:55:29;12.10;68.28
69464;DHT22;56665;41.106;16.688;2023-11-19T06:58:36;12.30;67.08
69464;DHT22;56665;41.106;16.688;2023-11-19T07:01:39;12.51;66.58
69464;DHT22;56665;41.106;16.688;2023-11-19T07:04:47;12.73;66.37
69464;DHT22;56665;41.106;16.688;2023-11-19T07:07:51;12.92;66.10
69464;DHT22;56665;41.106;16.688;2023-11-19T07:10:54;13.20;65.56
69464;DHT22;56665;41.106;16.688;2023-11-19T07:13:58;13.43;64.82
69464;DHT22;56665;41.106;16.688;2023-11-19T07:17:04;13.67;64.07
69464;DHT22;56665;41.106;16.688;2023-11-19T07:20:08;13.89;63.95
69464;DHT22;56665;41.106;16.688;2023-11-19T07:23:12;14.12;63.49
69464;DHT22;56665;41.106;16.688;2023-11-19T07:26:19;14.41;62.61
69464;DHT22;56665;41.106;16.688;2023-11-19T07:29:23;14.64;62.25
69464;DHT22;56665;41.106;16.688;2023-11-19T07:32:27;14.88;62.10
69464;DHT22;56665;41.106;16.688;2023-11-19T07:35:31;15.11;61.51
69464;DHT22;56665;41.106;16.688;2023-11-19T07:38:36;15.18;61.27
69464;DHT22;56665;41.106;16.688;2023-11-19T07:41:40;15.28;61.32
69464;DHT22;56665;41.106;16.688;2023-11-19T07:44:43;15.56;60.86
69464;DHT22;56665;41.106;16.688;2023-11-19T07:47:47;15.77;60.14
69464;DHT22;56665;41.106;16.688;2023-11-19T07:50:52;16.00;59.76
69464;DHT22;56665;41.106;16.688;2023-11-19T07:53:56;16.17;59.07
69464;DHT22;56665;41.106;16.688;2023-11-19T07:57:00;16.32;59.07
69464;DHT22;56665;41.106;16.688;2023-11-19T08:00:05;16.53;59.01
69464;DHT22;56665;41.106;16.688;2023-11-19T08:03:16;16.72;58.75
69464;DHT22;56665;41.106;16.688;2023-11-19T08:06:20;16.89;58.00
69464;DHT22;56665;41.106;16.688;2023-11-19T08:09:24;17.10;57.67
69464;DHT22;56665;41.106;16.688;2023-11-19T08:12:28;17.27;57.53
69464;DHT22;56665;41.106;16.688;2023-11-19T08:15:32;17.48;56.59
69464;DHT22;56665;41.106;16.688;2023-11-19T08:18:35;17.67;55.87
69464;DHT22;56665;41.106;16.688;2023-11-19T08:21:39;17.88;55.40
69464;DHT22;56665;41.106;16.688;2023-11-19T08:24:43;17.96;54.93
69464;DHT22;56665;41.106;16.688;2023-11-19T08:27:47;17.90;54.47
69464;DHT22;56665;41.106;16.688;2023-11-19T08:30:51;18.24;54.27
69464;DHT22;56665;41.106;16.688;2023-11-19T08:33:54;18.51;52.98
69464;DHT22;56665;41.106;16.688;2023-11-19T08:36:59;18.77;52.58
69464;DHT22;56665;41.106;16.688;2023-11-19T08:40:02;19.00;55.39
69464;DHT22;56665;41.106;16.688;2023-11-19T08:43:07;19.29;55.47
69464;DHT22;56665;41.106;16.688;2023-11-19T08:46:11;19.51;52.72
69464;DHT22;56665;41.106;16.688;2023-11-19T08:49:16;19.71;48.81
69464;DHT22;56665;41.106;16.688;2023-11-19T08:52:19;19.98;48.84
69464;DHT22;56665;41.106;16.688;2023-11-19T08:55:23;20.22;47.90
69464;DHT22;56665;41.106;16.688;2023-11-19T08:58:27;20.38;47.50
69464;DHT22;56665;41.106;16.688;2023-11-19T09:01:31;20.50;47.45
69464;DHT22;56665;41.106;16.688;2023-11-19T09:04:34;20.76;46.63
69464;DHT22;56665;41.106;16.688;2023-11-19T09:07:39;20.80;46.91
69464;DHT22;56665;41.106;16.688;2023-11-19T09:10:43;20.80;47.30
69464;DHT22;56665;41.106;16.688;2023-11-19T09:13:46;20.88;46.66
69464;DHT22;56665;41.106;16.688;2023-11-19T09:16:51;21.11;46.85
69464;DHT22;56665;41.106;16.688;2023-11-19T09:19:55;21.27;46.54
69464;DHT22;56665;41.106;16.688;2023-11-19T09:22:58;21.19;45.77
69464;DHT22;56665;41.106;16.688;2023-11-19T09:26:02;21.04;46.54
69464;DHT22;56665;41.106;16.688;2023-11-19T09:29:07;20.69;46.93
69464;DHT22;56665;41.106;16.688;2023-11-19T09:32:11;20.72;46.46
69464;DHT22;56665;41.106;16.688;2023-11-19T09:35:14;20.84;46.78
69464;DHT22;56665;41.106;16.688;2023-11-19T09:38:19;20.84;46.58
69464;DHT22;56665;41.106;16.688;2023-11-19T09:41:23;20.81;46.25
69464;DHT22;56665;41.106;16.688;2023-11-19T09:44:27;20.75;45.72
69464;DHT22;56665;41.106;16.688;2023-11-19T09:47:31;20.77;45.76
69464;DHT22;56665;41.106;16.688;2023-11-19T09:50:35;20.94;45.74
69464;DHT22;56665;41.106;16.688;2023-11-19T09:53:39;21.01;45.27
69464;DHT22;56665;41.106;16.688;2023-11-19T09:56:43;21.06;46.00
69464;DHT22;56665;41.106;16.688;2023-11-19T09:59:49;21.08;45.26
69464;DHT22;56665;41.106;16.688;2023-11-19T10:02:54;21.15;44.77
69464;DHT22;56665;41.106;16.688;2023-11-19T10:06:01;21.21;44.61
69464;DHT22;56665;41.106;16.688;2023-11-19T10:09:05;21.32;44.65
69464;DHT22;56665;41.106;16.688;2023-11-19T10:12:09;21.32;44.79
69464;DHT22;56665;41.106;16.688;2023-11-19T10:15:24;21.31;44.67
69464;DHT22;56665;41.106;16.688;2023-11-19T10:18:28;21.34;44.36
69464;DHT22;56665;41.106;16.688;2023-11-19T10:21:35;21.28;43.83
69464;DHT22;56665;41.106;16.688;2023-11-19T10:24:38;21.18;44.17
69464;DHT22;56665;41.106;16.688;2023-11-19T10:27:44;21.15;43.64
69464;DHT22;56665;41.106;16.688;2023-11-19T10:30:48;21.08;43.31
69464;DHT22;56665;41.106;16.688;2023-11-19T10:33:52;21.08;43.66
69464;DHT22;56665;41.106;16.688;2023-11-19T10:36:56;21.12;43.69
69464;DHT22;56665;41.106;16.688;2023-11-19T10:40:00;21.12;43.44
69464;DHT22;56665;41.106;16.688;2023-11-19T10:43:04;20.94;42.22
69464;DHT22;56665;41.106;16.688;2023-11-19T10:46:11;20.88;43.20
69464;DHT22;56665;41.106;16.688;2023-11-19T10:49:16;20.86;43.98
69464;DHT22;56665;41.106;16.688;2023-11-19T10:52:19;20.94;43.60
69464;DHT22;56665;41.106;16.688;2023-11-19T10:55:32;20.84;43.70
69464;DHT22;56665;41.106;16.688;2023-11-19T10:58:44;20.79;43.81
69464;DHT22;56665;41.106;16.688;2023-11-19T11:01:51;20.75;43.80
69464;DHT22;56665;41.106;16.688;2023-11-19T11:04:56;20.72;42.76
69464;DHT22;56665;41.106;16.688;2023-11-19T11:08:01;20.57;43.35
69464;DHT22;56665;41.106;16.688;2023-11-19T11:11:07;20.55;43.94
69464;DHT22;56665;41.106;16.688;2023-11-19T11:14:12;20.42;42.87
69464;DHT22;56665;41.106;16.688;2023-11-19T11:17:17;20.26;43.09
69464;DHT22;56665;41.106;16.688;2023-11-19T11:20:21;20.22;42.52
69464;DHT22;56665;41.106;16.688;2023-11-19T11:23:37;20.33;43.26
69464;DHT22;56665;41.106;16.688;2023-11-19T11:30:39;20.59;42.65
69464;DHT22;56665;41.106;16.688;2023-11-19T11:37:32;20.61;42.48
69464;DHT22;56665;41.106;16.688;2023-11-19T11:40:37;20.53;41.87
69464;DHT22;56665;41.106;16.688;2023-11-19T11:43:51;20.46;42.12
69464;DHT22;56665;41.106;16.688;2023-11-19T11:46:55;20.50;43.18
69464;DHT22;56665;41.106;16.688;2023-11-19T11:50:06;20.60;43.49
69464;DHT22;56665;41.106;16.688;2023-11-19T11:53:16;20.57;42.72
69464;DHT22;56665;41.106;16.688;2023-11-19T11:56:20;20.59;43.30
69464;DHT22;56665;41.106;16.688;2023-11-19T11:59:24;20.55;43.17
69464;DHT22;56665;41.106;16.688;2023-11-19T12:02:29;20.56;43.42
69464;DHT22;56665;41.106;16.688;2023-11-19T12:05:33;20.36;42.41
69464;DHT22;56665;41.106;16.688;2023-11-19T12:08:41;20.24;42.00
69464;DHT22;56665;41.106;16.688;2023-11-19T12:11:47;20.15;42.51
69464;DHT22;56665;41.106;16.688;2023-11-19T12:18:05;20.12;43.92
69464;DHT22;56665;41.106;16.688;2023-11-19T12:21:09;20.04;45.45
69464;DHT22;56665;41.106;16.688;2023-11-19T12:24:16;20.01;46.91
69464;DHT22;56665;41.106;16.688;2023-11-19T12:27:20;19.94;45.52
69464;DHT22;56665;41.106;16.688;2023-11-19T12:30:27;19.84;46.20
69464;DHT22;56665;41.106;16.688;2023-11-19T12:33:32;19.61;46.70
69464;DHT22;56665;41.106;16.688;2023-11-19T12:36:36;19.50;47.32
69464;DHT22;56665;41.106;16.688;2023-11-19T12:39:40;19.27;47.25
69464;DHT22;56665;41.106;16.688;2023-11-19T12:42:48;19.19;48.41
69464;DHT22;56665;41.106;16.688;2023-11-19T12:45:52;19.12;48.18
69464;DHT22;56665;41.106;16.688;2023-11-19T12:48:55;18.98;47.55
69464;DHT22;56665;41.106;16.688;2023-11-19T12:51:59;18.98;48.62
69464;DHT22;56665;41.106;16.688;2023-11-19T12:55:26;18.98;48.34
69464;DHT22;56665;41.106;16.688;2023-11-19T12:58:34;18.92;48.91
69464;DHT22;56665;41.106;16.688;2023-11-19T13:01:39;19.05;49.21
69464;DHT22;56665;41.106;16.688;2023-11-19T13:04:44;19.10;48.67
69464;DHT22;56665;41.106;16.688;2023-11-19T13:07:49;18.99;48.01
69464;DHT22;56665;41.106;16.688;2023-11-19T13:10:53;18.92;48.95
69464;DHT22;56665;41.106;16.688;2023-11-19T13:13:59;18.82;49.76
69464;DHT22;56665;41.106;16.688;2023-11-19T13:17:03;18.64;49.64
69464;DHT22;56665;41.106;16.688;2023-11-19T13:20:07;18.47;50.67
69464;DHT22;56665;41.106;16.688;2023-11-19T13:23:11;18.43;50.56
69464;DHT22;56665;41.106;16.688;2023-11-19T13:26:15;18.34;51.03
69464;DHT22;56665;41.106;16.688;2023-11-19T13:29:18;18.20;50.78
69464;DHT22;56665;41.106;16.688;2023-11-19T13:32:22;18.20;52.15
69464;DHT22;56665;41.106;16.688;2023-11-19T13:35:26;18.17;51.95
69464;DHT22;56665;41.106;16.688;2023-11-19T13:38:32;18.17;52.54
69464;DHT22;56665;41.106;16.688;2023-11-19T13:41:36;18.03;52.00
69464;DHT22;56665;41.106;16.688;2023-11-19T13:44:40;18.05;52.00
69464;DHT22;56665;41.106;16.688;2023-11-19T13:47:45;17.96;51.77
69464;DHT22;56665;41.106;16.688;2023-11-19T13:50:49;17.89;53.13
69464;DHT22;56665;41.106;16.688;2023-11-19T13:53:52;17.79;54.62
69464;DHT22;56665;41.106;16.688;2023-11-19T13:56:56;17.85;57.05
69464;DHT22;56665;41.106;16.688;2023-11-19T14:00:03;17.89;55.08
69464;DHT22;56665;41.106;16.688;2023-11-19T14:03:12;17.90;52.78
69464;DHT22;56665;41.106;16.688;2023-11-19T14:06:16;17.67;52.02
69464;DHT22;56665;41.106;16.688;2023-11-19T14:09:20;17.59;53.15
69464;DHT22;56665;41.106;16.688;2023-11-19T14:12:24;17.57;54.92
69464;DHT22;56665;41.106;16.688;2023-11-19T14:15:28;17.48;53.15
69464;DHT22;56665;41.106;16.688;2023-11-19T14:18:33;17.31;53.93
69464;DHT22;56665;41.106;16.688;2023-11-19T14:21:38;17.18;54.58
69464;DHT22;56665;41.106;16.688;2023-11-19T14:24:42;17.16;55.23
69464;DHT22;56665;41.106;16.688;2023-11-19T14:27:46;17.04;55.02
69464;DHT22;56665;41.106;16.688;2023-11-19T14:30:50;16.97;55.36
69464;DHT22;56665;41.106;16.688;2023-11-19T14:33:57;16.83;55.08
69464;DHT22;56665;41.106;16.688;2023-11-19T14:37:01;16.75;56.59
69464;DHT22;56665;41.106;16.688;2023-11-19T14:40:06;16.72;55.92
69464;DHT22;56665;41.106;16.688;2023-11-19T14:43:12;16.75;57.69
69464;DHT22;56665;41.106;16.688;2023-11-19T14:46:16;16.68;58.48
69464;DHT22;56665;41.106;16.688;2023-11-19T14:49:19;16.72;58.00
69464;DHT22;56665;41.106;16.688;2023-11-19T14:52:23;16.70;58.16
69464;DHT22;56665;41.106;16.688;2023-11-19T14:55:27;16.65;56.63
69464;DHT22;56665;41.106;16.688;2023-11-19T14:58:31;16.65;56.80
69464;DHT22;56665;41.106;16.688;2023-11-19T15:01:35;16.58;56.37
69464;DHT22;56665;41.106;16.688;2023-11-19T15:04:38;16.53;55.92
69464;DHT22;56665;41.106;16.688;2023-11-19T15:07:43;16.45;55.71
69464;DHT22;56665;41.106;16.688;2023-11-19T15:10:47;16.37;55.91
69464;DHT22;56665;41.106;16.688;2023-11-19T15:13:51;16.32;56.04
69464;DHT22;56665;41.106;16.688;2023-11-19T15:16:54;16.27;56.89
69464;DHT22;56665;41.106;16.688;2023-11-19T15:19:58;16.25;55.97
69464;DHT22;56665;41.106;16.688;2023-11-19T15:23:02;16.21;55.76
69464;DHT22;56665;41.106;16.688;2023-11-19T15:26:07;16.13;56.53
69464;DHT22;56665;41.106;16.688;2023-11-19T15:29:13;16.08;57.20
69464;DHT22;56665;41.106;16.688;2023-11-19T15:32:17;16.04;57.25
69464;DHT22;56665;41.106;16.688;2023-11-19T15:35:21;16.03;58.01
69464;DHT22;56665;41.106;16.688;2023-11-19T15:38:25;15.96;58.42
69464;DHT22;56665;41.106;16.688;2023-11-19T15:41:29;15.98;58.36
69464;DHT22;56665;41.106;16.688;2023-11-19T15:44:33;15.90;59.21
69464;DHT22;56665;41.106;16.688;2023-11-19T15:47:37;15.86;59.01
69464;DHT22;56665;41.106;16.688;2023-11-19T15:50:42;15.83;59.37
69464;DHT22;56665;41.106;16.688;2023-11-19T15:53:48;15.78;59.84
69464;DHT22;56665;41.106;16.688;2023-11-19T15:56:51;15.77;59.67
69464;DHT22;56665;41.106;16.688;2023-11-19T15:59:55;15.73;59.68
69464;DHT22;56665;41.106;16.688;2023-11-19T16:02:59;15.66;59.61
69464;DHT22;56665;41.106;16.688;2023-11-19T16:06:03;15.66;59.99
69464;DHT22;56665;41.106;16.688;2023-11-19T16:09:07;15.59;59.90
69464;DHT22;56665;41.106;16.688;2023-11-19T16:12:13;15.56;60.18
69464;DHT22;56665;41.106;16.688;2023-11-19T16:15:16;15.52;60.65
69464;DHT22;56665;41.106;16.688;2023-11-19T16:18:20;15.57;60.61
69464;DHT22;56665;41.106;16.688;2023-11-19T16:21:24;15.52;59.41
69464;DHT22;56665;41.106;16.688;2023-11-19T16:24:28;15.43;59.19
69464;DHT22;56665;41.106;16.688;2023-11-19T16:27:32;15.34;59.72
69464;DHT22;56665;41.106;16.688;2023-11-19T16:30:35;15.19;60.46
69464;DHT22;56665;41.106;16.688;2023-11-19T16:33:39;15.09;61.01
69464;DHT22;56665;41.106;16.688;2023-11-19T16:36:43;15.01;61.10
69464;DHT22;56665;41.106;16.688;2023-11-19T16:39:47;14.94;61.01
69464;DHT22;56665;41.106;16.688;2023-11-19T16:42:51;14.89;61.01
69464;DHT22;56665;41.106;16.688;2023-11-19T16:45:54;14.74;61.48
69464;DHT22;56665;41.106;16.688;2023-11-19T16:48:58;14.63;62.47
69464;DHT22;56665;41.106;16.688;2023-11-19T16:52:03;14.53;63.12
69464;DHT22;56665;41.106;16.688;2023-11-19T16:55:07;14.43;63.64
69464;DHT22;56665;41.106;16.688;2023-11-19T16:58:15;14.39;63.80
69464;DHT22;56665;41.106;16.688;2023-11-19T17:01:18;14.29;64.06
69464;DHT22;56665;41.106;16.688;2023-11-19T17:04:22;14.25;64.66
69464;DHT22;56665;41.106;16.688;2023-11-19T17:07:26;14.26;64.48
69464;DHT22;56665;41.106;16.688;2023-11-19T17:10:30;14.13;64.90
69464;DHT22;56665;41.106;16.688;2023-11-19T17:13:34;14.09;65.44
69464;DHT22;56665;41.106;16.688;2023-11-19T17:16:38;14.10;65.58
69464;DHT22;56665;41.106;16.688;2023-11-19T17:19:43;14.08;65.43
69464;DHT22;56665;41.106;16.688;2023-11-19T17:22:47;14.02;65.68
69464;DHT22;56665;41.106;16.688;2023-11-19T17:25:53;13.94;66.46
69464;DHT22;56665;41.106;16.688;2023-11-19T17:28:56;13.91;66.58
69464;DHT22;56665;41.106;16.688;2023-11-19T17:32:00;13.82;66.87
69464;DHT22;56665;41.106;16.688;2023-11-19T17:35:05;13.77;67.20
69464;DHT22;56665;41.106;16.688;2023-11-19T17:38:09;13.64;67.44
69464;DHT22;56665;41.106;16.688;2023-11-19T17:41:13;13.61;67.36
69464;DHT22;56665;41.106;16.688;2023-11-19T17:44:17;13.61;66.97
69464;DHT22;56665;41.106;16.688;2023-11-19T17:47:21;13.59;66.97
69464;DHT22;56665;41.106;16.688;2023-11-19T17:50:25;13.58;67.09
69464;DHT22;56665;41.106;16.688;2023-11-19T17:53:29;13.58;66.93
69464;DHT22;56665;41.106;16.688;2023-11-19T17:56:33;13.58;67.11
69464;DHT22;56665;41.106;16.688;2023-11-19T17:59:36;13.54;66.80
69464;DHT22;56665;41.106;16.688;2023-11-19T18:02:42;13.54;67.78
69464;DHT22;56665;41.106;16.688;2023-11-19T18:05:49;13.57;67.01
69464;DHT22;56665;41.106;16.688;2023-11-19T18:08:52;13.48;67.06
69464;DHT22;56665;41.106;16.688;2023-11-19T18:11:56;13.48;66.79
69464;DHT22;56665;41.106;16.688;2023-11-19T18:15:08;13.43;66.42
69464;DHT22;56665;41.106;16.688;2023-11-19T18:18:16;13.38;66.96
69464;DHT22;56665;41.106;16.688;2023-11-19T18:21:20;13.40;66.70
69464;DHT22;56665;41.106;16.688;2023-11-19T18:24:25;13.46;66.14
69464;DHT22;56665;41.106;16.688;2023-11-19T18:27:29;13.43;65.94
69464;DHT22;56665;41.106;16.688;2023-11-19T18:30:32;13.38;66.39
69464;DHT22;56665;41.106;16.688;2023-11-19T18:33:36;13.28;66.60
69464;DHT22;56665;41.106;16.688;2023-11-19T18:36:41;13.24;67.01
69464;DHT22;56665;41.106;16.688;2023-11-19T18:39:45;13.23;66.40
69464;DHT22;56665;41.106;16.688;2023-11-19T18:42:49;13.24;66.69
69464;DHT22;56665;41.106;16.688;2023-11-19T18:45:54;13.26;66.62
69464;DHT22;56665;41.106;16.688;2023-11-19T18:48:59;13.22;66.76
69464;DHT22;56665;41.106;16.688;2023-11-19T18:52:04;13.22;66.61
69464;DHT22;56665;41.106;16.688;2023-11-19T18:55:10;13.10;67.17
69464;DHT22;56665;41.106;16.688;2023-11-19T18:58:14;13.17;67.10
69464;DHT22;56665;41.106;16.688;2023-11-19T19:01:19;13.20;66.86
69464;DHT22;56665;41.106;16.688;2023-11-19T19:04:22;13.19;66.74
69464;DHT22;56665;41.106;16.688;2023-11-19T19:07:27;13.19;66.73
69464;DHT22;56665;41.106;16.688;2023-11-19T19:10:31;13.12;66.86
69464;DHT22;56665;41.106;16.688;2023-11-19T19:13:35;13.07;67.43
69464;DHT22;56665;41.106;16.688;2023-11-19T19:16:39;13.07;67.35